Time,TemperatureF,DewpointF,PressureIn,WindDirection,WindDirectionDegrees,WindSpeedMPH,WindSpeedGustMPH,Humidity,HourlyPrecipIn,Conditions,Clouds,dailyrainin,SoftwareType,DateUTC
2013-02-25 00:00:00,36.5,36.0,28.76,SSE,158,0.0,0.0,98,0.05,,,0.00,VWS V14.01,2013-02-25 08:00:00,
2013-02-25 00:04:00,36.0,35.5,28.82,SSW,202,1.6,1.6,98,0.05,,OVC039,0.00,VWS V14.01,2013-02-25 08:04:00,
2013-02-25 00:09:00,36.1,35.6,28.82,SSE,158,0.0,0.0,98,0.05,,OVC039,0.00,VWS V14.01,2013-02-25 08:09:00,
2013-02-25 00:14:00,36.1,35.6,28.82,WNW,292,1.6,1.6,98,0.05,,OVC039,0.00,VWS V14.01,2013-02-25 08:14:00,
2013-02-25 00:19:00,36.1,35.6,28.82,WSW,248,0.0,0.0,98,0.05,,OVC039,0.00,VWS V14.01,2013-02-25 08:19:00,
2013-02-25 00:24:00,36.1,35.6,28.79,ESE,112,1.3,1.3,98,0.05,,OVC039,0.00,VWS V14.01,2013-02-25 08:24:00,
2013-02-25 00:29:00,36.1,35.6,28.79,West,270,1.3,1.3,98,0.05,,OVC039,0.00,VWS V14.01,2013-02-25 08:29:00,
2013-02-25 00:30:00,36.1,35.6,28.76,West,270,1.6,1.6,98,0.04,,,0.04,VWS V14.01,2013-02-25 08:30:00,
2013-02-25 00:34:00,36.3,35.8,28.79,WNW,292,2.2,2.2,98,0.05,,OVC039,0.00,VWS V14.01,2013-02-25 08:34:00,
2013-02-25 00:39:00,36.3,35.8,28.79,West,270,2.2,2.2,98,0.05,,OVC039,0.00,VWS V14.01,2013-02-25 08:39:00,
2013-02-25 00:44:00,36.3,35.8,28.79,SW,225,2.5,2.5,98,0.05,,OVC039,0.00,VWS V14.01,2013-02-25 08:44:00,
2013-02-25 00:49:00,36.3,35.8,28.79,ENE,68,1.3,1.3,98,0.05,,OVC039,0.00,VWS V14.01,2013-02-25 08:49:00,
2013-02-25 00:54:00,36.3,35.8,28.76,WSW,248,0.0,0.0,98,0.05,,OVC039,0.00,VWS V14.01,2013-02-25 08:54:00,
2013-02-25 00:59:00,36.5,36.0,28.76,SSE,158,0.0,0.0,98,0.05,,OVC039,0.00,VWS V14.01,2013-02-25 08:59:00,
2013-02-25 01:00:00,36.1,35.6,28.76,NNW,338,1.6,1.6,98,0.08,,,0.08,VWS V14.01,2013-02-25 09:00:00,
2013-02-25 01:04:00,36.3,35.8,28.76,SE,135,0.0,0.0,98,0.00,,-RA,0.00,VWS V14.01,2013-02-25 09:04:00,
2013-02-25 01:09:00,36.5,36.0,28.76,SE,135,0.9,0.9,98,0.00,,-RA,0.00,VWS V14.01,2013-02-25 09:09:00,
2013-02-25 01:14:00,36.3,35.8,28.76,NW,315,0.0,0.0,98,0.04,,-RA,0.04,VWS V14.01,2013-02-25 09:14:00,
2013-02-25 01:19:00,36.3,35.8,28.76,SSW,202,0.0,0.0,98,0.04,,-RA,0.04,VWS V14.01,2013-02-25 09:19:00,
2013-02-25 01:24:00,36.3,35.8,28.76,East,90,0.0,0.0,98,0.04,,-RA,0.04,VWS V14.01,2013-02-25 09:24:00,
2013-02-25 01:29:00,36.1,35.6,28.76,NNE,22,1.1,1.1,98,0.04,,-RA,0.04,VWS V14.01,2013-02-25 09:29:00,
2013-02-25 01:30:00,35.8,35.3,28.76,SSW,202,0.0,0.0,98,0.12,,,0.12,VWS V14.01,2013-02-25 09:30:00,
2013-02-25 01:34:00,36.1,35.6,28.76,South,180,0.0,0.0,98,0.08,,-RA,0.08,VWS V14.01,2013-02-25 09:34:00,
2013-02-25 01:39:00,36.1,35.6,28.76,NNW,338,1.1,1.1,98,0.08,,-RA,0.08,VWS V14.01,2013-02-25 09:39:00,
2013-02-25 01:44:00,36.1,35.6,28.76,NNW,338,1.6,1.6,98,0.08,,-RA,0.08,VWS V14.01,2013-02-25 09:44:00,
2013-02-25 01:49:00,36.1,35.6,28.76,SSW,202,2.2,2.2,98,0.08,,-RA,0.08,VWS V14.01,2013-02-25 09:49:00,
2013-02-25 01:54:00,36.1,35.6,28.76,NNW,338,0.9,0.9,98,0.08,,-RA,0.08,VWS V14.01,2013-02-25 09:54:00,
2013-02-25 01:59:00,36.1,35.6,28.76,NNW,338,0.0,0.0,98,0.08,,-RA,0.08,VWS V14.01,2013-02-25 09:59:00,
2013-02-25 02:00:00,35.6,35.1,28.76,SSW,202,0.9,0.9,98,0.17,,,0.21,VWS V14.01,2013-02-25 10:00:00,
2013-02-25 02:04:00,36.0,35.5,28.76,SSW,202,1.6,1.6,98,0.08,,OVC035,0.08,VWS V14.01,2013-02-25 10:04:00,
2013-02-25 02:09:00,36.0,35.5,28.76,NNE,22,1.3,1.3,98,0.12,,OVC035,0.12,VWS V14.01,2013-02-25 10:09:00,
2013-02-25 02:14:00,36.0,35.5,28.76,SE,135,0.0,0.0,98,0.12,,OVC035,0.12,VWS V14.01,2013-02-25 10:14:00,
2013-02-25 02:19:00,35.8,35.3,28.76,ESE,112,0.0,0.0,98,0.12,,OVC035,0.12,VWS V14.01,2013-02-25 10:19:00,
2013-02-25 02:24:00,35.8,35.3,28.76,SSW,202,0.0,0.0,98,0.12,,OVC035,0.12,VWS V14.01,2013-02-25 10:24:00,
2013-02-25 02:29:00,35.8,35.3,28.76,SSE,158,0.0,0.0,98,0.12,,OVC035,0.12,VWS V14.01,2013-02-25 10:29:00,
2013-02-25 02:30:00,35.1,34.5,28.76,South,180,0.0,0.0,98,0.13,,,0.21,VWS V14.01,2013-02-25 10:30:00,
2013-02-25 02:34:00,35.8,35.3,28.76,SW,225,0.0,0.0,98,0.08,,OVC035,0.12,VWS V14.01,2013-02-25 10:34:00,
2013-02-25 02:39:00,35.8,35.3,28.76,SSW,202,0.0,0.0,98,0.12,,OVC035,0.16,VWS V14.01,2013-02-25 10:39:00,
2013-02-25 02:44:00,35.8,35.3,28.76,East,90,2.0,2.0,98,0.12,,OVC035,0.16,VWS V14.01,2013-02-25 10:44:00,
2013-02-25 02:49:00,35.6,35.1,28.76,ENE,68,0.0,0.0,98,0.12,,OVC035,0.16,VWS V14.01,2013-02-25 10:49:00,
2013-02-25 02:54:00,35.6,35.1,28.76,SSW,202,1.1,1.1,98,0.12,,OVC035,0.16,VWS V14.01,2013-02-25 10:54:00,
2013-02-25 02:59:00,35.6,35.1,28.76,South,180,1.3,1.3,98,0.17,,OVC035,0.21,VWS V14.01,2013-02-25 10:59:00,
2013-02-25 03:00:00,35.1,34.5,28.76,SSE,158,1.6,1.6,98,0.13,,,0.25,VWS V14.01,2013-02-25 11:00:00,
2013-02-25 03:04:00,35.4,34.9,28.76,South,180,0.0,0.0,98,0.13,,-RA,0.21,VWS V14.01,2013-02-25 11:04:00,
2013-02-25 03:09:00,35.2,34.7,28.76,NNW,338,0.0,0.0,98,0.13,,-RA,0.21,VWS V14.01,2013-02-25 11:09:00,
2013-02-25 03:14:00,35.2,34.7,28.76,SW,225,0.0,0.0,98,0.13,,-RA,0.21,VWS V14.01,2013-02-25 11:14:00,
2013-02-25 03:19:00,35.2,34.7,28.76,ENE,68,2.0,2.0,98,0.13,,-RA,0.21,VWS V14.01,2013-02-25 11:19:00,
2013-02-25 03:24:00,35.1,34.5,28.76,South,180,0.0,0.0,98,0.13,,-RA,0.21,VWS V14.01,2013-02-25 11:24:00,
2013-02-25 03:29:00,35.1,34.5,28.76,South,180,1.1,1.1,98,0.13,,-RA,0.21,VWS V14.01,2013-02-25 11:29:00,
2013-02-25 03:30:00,35.4,34.9,28.79,SE,135,2.0,2.0,98,0.04,,,0.25,VWS V14.01,2013-02-25 11:30:00,
2013-02-25 03:34:00,35.1,34.5,28.76,SSW,202,0.0,0.0,98,0.09,,-RA,0.21,VWS V14.01,2013-02-25 11:34:00,
2013-02-25 03:39:00,35.1,34.5,28.76,SSE,158,0.0,0.0,98,0.09,,-RA,0.21,VWS V14.01,2013-02-25 11:39:00,
2013-02-25 03:44:00,35.1,34.5,28.76,South,180,1.3,1.3,98,0.09,,-RA,0.21,VWS V14.01,2013-02-25 11:44:00,
2013-02-25 03:49:00,35.1,34.5,28.76,South,180,0.0,0.0,98,0.09,,-RA,0.21,VWS V14.01,2013-02-25 11:49:00,
2013-02-25 03:54:00,35.2,34.7,28.76,East,90,2.7,2.7,98,0.09,,-RA,0.21,VWS V14.01,2013-02-25 11:54:00,
2013-02-25 03:59:00,35.1,34.5,28.76,SSE,158,0.0,0.0,98,0.13,,-RA,0.25,VWS V14.01,2013-02-25 11:59:00,
2013-02-25 04:00:00,35.4,34.9,28.79,South,180,0.0,0.0,98,0.12,,,0.33,VWS V14.01,2013-02-25 12:00:00,
2013-02-25 04:04:00,35.1,34.5,28.76,SSE,158,0.0,0.0,98,0.04,,-RA,0.25,VWS V14.01,2013-02-25 12:04:00,
2013-02-25 04:09:00,35.1,34.5,28.76,SSW,202,1.1,1.1,98,0.04,,-RA,0.25,VWS V14.01,2013-02-25 12:09:00,
2013-02-25 04:14:00,35.2,34.7,28.76,SSE,158,1.3,1.3,98,0.04,,-RA,0.25,VWS V14.01,2013-02-25 12:14:00,
2013-02-25 04:19:00,35.2,34.7,28.76,SW,225,0.0,0.0,98,0.04,,-RA,0.25,VWS V14.01,2013-02-25 12:19:00,
2013-02-25 04:24:00,35.2,34.7,28.79,ESE,112,1.3,1.3,98,0.04,,-RA,0.25,VWS V14.01,2013-02-25 12:24:00,
2013-02-25 04:29:00,35.4,34.9,28.79,ESE,112,1.6,1.6,98,0.04,,-RA,0.25,VWS V14.01,2013-02-25 12:29:00,
2013-02-25 04:30:00,35.2,34.7,28.79,NNW,338,2.2,2.2,98,0.08,,,0.33,VWS V14.01,2013-02-25 12:30:00,
2013-02-25 04:34:00,35.4,34.9,28.79,West,270,2.5,2.5,98,0.04,,-RA,0.25,VWS V14.01,2013-02-25 12:34:00,
2013-02-25 04:38:00,35.4,34.9,28.79,SSW,202,2.0,2.0,98,0.08,,-RA,0.29,VWS V14.01,2013-02-25 12:38:00,
2013-02-25 04:44:00,35.4,34.9,28.79,NNW,338,2.5,2.5,98,0.08,,-RA,0.29,VWS V14.01,2013-02-25 12:44:00,
2013-02-25 04:49:00,35.4,34.9,28.79,ESE,112,2.9,2.9,98,0.08,,-RA,0.29,VWS V14.01,2013-02-25 12:49:00,
2013-02-25 04:53:00,35.6,35.1,28.79,NNW,338,3.1,3.1,98,0.12,,-RA,0.33,VWS V14.01,2013-02-25 12:53:00,
2013-02-25 04:59:00,35.4,34.9,28.79,ESE,112,1.1,1.1,98,0.12,,-RA,0.33,VWS V14.01,2013-02-25 12:59:00,
2013-02-25 05:00:00,35.4,34.9,28.79,ESE,112,3.1,3.1,98,0.08,,,0.33,VWS V14.01,2013-02-25 13:00:00,
2013-02-25 05:04:00,35.4,34.9,28.79,WNW,292,0.9,0.9,98,0.08,,OVC028,0.33,VWS V14.01,2013-02-25 13:04:00,
2013-02-25 05:09:00,35.2,34.7,28.79,ESE,112,1.1,1.1,98,0.08,,OVC028,0.33,VWS V14.01,2013-02-25 13:09:00,
2013-02-25 05:14:00,35.2,34.7,28.79,WNW,292,1.1,1.1,98,0.08,,OVC028,0.33,VWS V14.01,2013-02-25 13:14:00,
2013-02-25 05:19:00,35.2,34.7,28.79,South,180,0.0,0.0,98,0.08,,OVC028,0.33,VWS V14.01,2013-02-25 13:19:00,
2013-02-25 05:24:00,35.2,34.7,28.79,SSW,202,1.1,1.1,98,0.08,,OVC028,0.33,VWS V14.01,2013-02-25 13:24:00,
2013-02-25 05:29:00,35.2,34.7,28.79,NNE,22,2.0,2.0,98,0.08,,OVC028,0.33,VWS V14.01,2013-02-25 13:29:00,
2013-02-25 05:30:00,36.0,35.5,28.79,NNW,338,3.1,3.1,98,0.04,,,0.37,VWS V14.01,2013-02-25 13:30:00,
2013-02-25 05:34:00,35.2,34.7,28.79,SSW,202,1.6,1.6,98,0.08,,OVC028,0.33,VWS V14.01,2013-02-25 13:34:00,
2013-02-25 05:39:00,35.2,34.7,28.79,SE,135,1.3,1.3,98,0.08,,OVC028,0.33,VWS V14.01,2013-02-25 13:39:00,
2013-02-25 05:44:00,35.4,34.9,28.79,South,180,0.0,0.0,98,0.08,,OVC028,0.33,VWS V14.01,2013-02-25 13:44:00,
2013-02-25 05:49:00,35.4,34.9,28.79,SSW,202,1.1,1.1,98,0.08,,OVC028,0.33,VWS V14.01,2013-02-25 13:49:00,
2013-02-25 05:54:00,35.4,34.9,28.79,South,180,0.0,0.0,98,0.08,,OVC028,0.33,VWS V14.01,2013-02-25 13:54:00,
2013-02-25 05:59:00,35.4,34.9,28.79,ENE,68,2.5,2.5,98,0.08,,OVC028,0.33,VWS V14.01,2013-02-25 13:59:00,
2013-02-25 06:00:00,36.0,35.5,28.82,NNE,22,5.4,5.4,98,0.08,,,0.41,VWS V14.01,2013-02-25 14:00:00,
2013-02-25 06:04:00,35.6,35.1,28.79,NNE,22,1.3,1.3,98,0.04,,,0.37,VWS V14.01,2013-02-25 14:04:00,
2013-02-25 06:09:00,35.8,35.3,28.79,SE,135,1.6,1.6,98,0.04,,,0.37,VWS V14.01,2013-02-25 14:09:00,
2013-02-25 06:14:00,35.8,35.3,28.79,East,90,0.9,0.9,98,0.04,,,0.37,VWS V14.01,2013-02-25 14:14:00,
2013-02-25 06:19:00,35.8,35.3,28.79,NE,45,7.4,7.4,98,0.04,,,0.37,VWS V14.01,2013-02-25 14:19:00,
2013-02-25 06:24:00,35.8,35.3,28.79,NNE,22,2.7,2.7,98,0.04,,,0.37,VWS V14.01,2013-02-25 14:24:00,
2013-02-25 06:29:00,36.0,35.5,28.79,NE,45,2.5,2.5,98,0.04,,,0.37,VWS V14.01,2013-02-25 14:29:00,
2013-02-25 06:30:00,36.3,35.3,28.82,NNE,22,4.3,4.3,96,0.12,,,0.45,VWS V14.01,2013-02-25 14:30:00,
2013-02-25 06:34:00,36.1,35.6,28.79,SE,135,2.7,2.7,98,0.04,,,0.37,VWS V14.01,2013-02-25 14:34:00,
2013-02-25 06:39:00,36.1,35.6,28.79,NNW,338,2.5,2.5,98,0.08,,,0.41,VWS V14.01,2013-02-25 14:39:00,
2013-02-25 06:44:00,36.1,35.6,28.79,SW,225,3.8,3.8,98,0.08,,,0.41,VWS V14.01,2013-02-25 14:44:00,
2013-02-25 06:49:00,36.1,35.6,28.79,SSW,202,4.9,4.9,98,0.08,,,0.41,VWS V14.01,2013-02-25 14:49:00,
2013-02-25 06:54:00,36.0,35.5,28.82,North,0,4.3,4.3,98,0.08,,,0.41,VWS V14.01,2013-02-25 14:54:00,
2013-02-25 06:59:00,36.0,35.5,28.82,WNW,292,6.3,6.3,98,0.08,,,0.41,VWS V14.01,2013-02-25 14:59:00,
2013-02-25 07:00:00,36.5,35.5,28.85,NW,315,3.4,3.4,96,0.08,,,0.45,VWS V14.01,2013-02-25 15:00:00,
2013-02-25 07:04:00,36.0,35.2,28.82,NNW,338,4.3,4.3,97,0.08,,-RA,0.41,VWS V14.01,2013-02-25 15:04:00,
2013-02-25 07:09:00,36.0,35.2,28.82,SSW,202,1.1,1.1,97,0.08,,-RA,0.41,VWS V14.01,2013-02-25 15:09:00,
2013-02-25 07:14:00,36.0,35.2,28.82,North,0,0.0,0.0,97,0.08,,-RA,0.41,VWS V14.01,2013-02-25 15:14:00,
2013-02-25 07:19:00,36.1,35.4,28.82,NW,315,4.9,4.9,97,0.12,,-RA,0.45,VWS V14.01,2013-02-25 15:19:00,
2013-02-25 07:24:00,36.1,35.1,28.82,NNE,22,4.0,4.0,96,0.12,,-RA,0.45,VWS V14.01,2013-02-25 15:24:00,
2013-02-25 07:29:00,36.3,35.3,28.82,NNE,22,2.9,2.9,96,0.12,,-RA,0.45,VWS V14.01,2013-02-25 15:29:00,
2013-02-25 07:30:00,36.7,35.7,28.85,SW,225,2.7,2.7,96,0.08,,,0.49,VWS V14.01,2013-02-25 15:30:00,
2013-02-25 07:34:00,36.3,35.3,28.82,ENE,68,2.0,2.0,96,0.08,,-RA,0.45,VWS V14.01,2013-02-25 15:34:00,
2013-02-25 07:39:00,36.3,35.3,28.82,NNW,338,8.7,8.7,96,0.08,,-RA,0.45,VWS V14.01,2013-02-25 15:39:00,
2013-02-25 07:44:00,36.3,35.3,28.82,NNW,338,4.9,4.9,96,0.08,,-RA,0.45,VWS V14.01,2013-02-25 15:44:00,
2013-02-25 07:49:00,36.5,35.5,28.82,NNW,338,5.8,5.8,96,0.08,,-RA,0.45,VWS V14.01,2013-02-25 15:49:00,
2013-02-25 07:54:00,36.3,35.3,28.85,NE,45,3.4,3.4,96,0.08,,-RA,0.45,VWS V14.01,2013-02-25 15:54:00,
2013-02-25 07:59:00,36.5,35.5,28.85,WNW,292,2.9,2.9,96,0.08,,-RA,0.45,VWS V14.01,2013-02-25 15:59:00,
2013-02-25 08:00:00,36.3,34.8,28.85,East,90,1.1,1.1,94,0.04,,,0.49,VWS V14.01,2013-02-25 16:00:00,
2013-02-25 08:04:00,36.3,35.3,28.85,NW,315,1.6,1.6,96,0.04,,-RA,0.45,VWS V14.01,2013-02-25 16:04:00,
2013-02-25 08:09:00,36.5,35.5,28.82,NNW,338,7.2,7.2,96,0.04,,-RA,0.45,VWS V14.01,2013-02-25 16:09:00,
2013-02-25 08:14:00,36.5,35.2,28.82,NE,45,2.2,2.2,95,0.04,,-RA,0.45,VWS V14.01,2013-02-25 16:14:00,
2013-02-25 08:19:00,36.5,35.5,28.82,ESE,112,2.0,2.0,96,0.04,,-RA,0.45,VWS V14.01,2013-02-25 16:19:00,
2013-02-25 08:24:00,36.7,35.7,28.85,NNW,338,4.0,4.0,96,0.08,,-RA,0.49,VWS V14.01,2013-02-25 16:24:00,
2013-02-25 08:29:00,36.7,35.7,28.85,West,270,2.5,2.5,96,0.08,,-RA,0.49,VWS V14.01,2013-02-25 16:29:00,
2013-02-25 08:30:00,36.5,35.2,28.88,SSE,158,1.3,1.3,95,0.09,,,0.54,VWS V14.01,2013-02-25 16:30:00,
2013-02-25 08:34:00,36.7,35.7,28.85,NNW,338,3.1,3.1,96,0.04,,-RA,0.49,VWS V14.01,2013-02-25 16:34:00,
2013-02-25 08:39:00,36.7,35.4,28.85,NE,45,4.3,4.3,95,0.04,,-RA,0.49,VWS V14.01,2013-02-25 16:39:00,
2013-02-25 08:44:00,36.7,35.1,28.85,NNW,338,4.3,4.3,94,0.04,,-RA,0.49,VWS V14.01,2013-02-25 16:44:00,
2013-02-25 08:49:00,36.7,35.1,28.85,WNW,292,1.6,1.6,94,0.04,,-RA,0.49,VWS V14.01,2013-02-25 16:49:00,
2013-02-25 08:54:00,36.5,34.9,28.85,NE,45,2.7,2.7,94,0.04,,-RA,0.49,VWS V14.01,2013-02-25 16:54:00,
2013-02-25 08:59:00,36.3,34.8,28.85,West,270,3.4,3.4,94,0.04,,-RA,0.49,VWS V14.01,2013-02-25 16:59:00,
2013-02-25 09:00:00,36.0,34.1,28.91,WNW,292,3.1,3.1,93,0.09,,,0.58,VWS V14.01,2013-02-25 17:00:00,
2013-02-25 09:04:00,36.3,34.8,28.85,North,0,3.4,3.4,94,0.04,,BKN015,0.49,VWS V14.01,2013-02-25 17:04:00,
2013-02-25 09:09:00,36.3,34.8,28.85,East,90,2.5,2.5,94,0.04,,BKN015,0.49,VWS V14.01,2013-02-25 17:09:00,
2013-02-25 09:14:00,36.3,34.8,28.85,NNW,338,4.3,4.3,94,0.04,,BKN015,0.49,VWS V14.01,2013-02-25 17:14:00,
2013-02-25 09:19:00,36.3,34.8,28.85,WNW,292,2.7,2.7,94,0.04,,BKN015,0.49,VWS V14.01,2013-02-25 17:19:00,
2013-02-25 09:24:00,36.3,35.0,28.88,SSW,202,1.1,1.1,95,0.04,,BKN015,0.49,VWS V14.01,2013-02-25 17:24:00,
2013-02-25 09:29:00,36.5,35.2,28.88,WNW,292,5.6,5.6,95,0.09,,BKN015,0.54,VWS V14.01,2013-02-25 17:29:00,
2013-02-25 09:30:00,37.0,35.5,28.91,WNW,292,3.4,3.4,94,0.13,,,0.62,VWS V14.01,2013-02-25 17:30:00,
2013-02-25 09:34:00,36.7,35.7,28.88,North,0,2.7,2.7,96,0.05,,BKN015,0.54,VWS V14.01,2013-02-25 17:34:00,
2013-02-25 09:39:00,36.7,35.7,28.88,WNW,292,3.8,3.8,96,0.05,,BKN015,0.54,VWS V14.01,2013-02-25 17:39:00,
2013-02-25 09:44:00,36.7,35.4,28.88,NNE,22,2.9,2.9,95,0.05,,BKN015,0.54,VWS V14.01,2013-02-25 17:44:00,
2013-02-25 09:49:00,36.5,35.2,28.88,NW,315,3.6,3.6,95,0.05,,BKN015,0.54,VWS V14.01,2013-02-25 17:49:00,
2013-02-25 09:54:00,36.1,34.3,28.91,NNW,338,5.4,5.4,93,0.05,,BKN015,0.54,VWS V14.01,2013-02-25 17:54:00,
2013-02-25 09:59:00,36.0,34.1,28.91,NNW,338,2.7,2.7,93,0.09,,BKN015,0.58,VWS V14.01,2013-02-25 17:59:00,
2013-02-25 10:00:00,37.0,35.7,28.94,NNE,22,2.5,2.5,95,0.12,,,0.66,VWS V14.01,2013-02-25 18:00:00,
2013-02-25 10:04:00,36.1,34.6,28.91,SSW,202,2.7,2.7,94,0.09,,BKN028,0.58,VWS V14.01,2013-02-25 18:04:00,
2013-02-25 10:09:00,36.9,35.6,28.91,NW,315,2.7,2.7,95,0.09,,BKN028,0.58,VWS V14.01,2013-02-25 18:09:00,
2013-02-25 10:14:00,37.0,36.0,28.91,ENE,68,2.2,2.2,96,0.09,,BKN028,0.58,VWS V14.01,2013-02-25 18:14:00,
2013-02-25 10:19:00,37.0,36.0,28.91,South,180,3.1,3.1,96,0.09,,BKN028,0.58,VWS V14.01,2013-02-25 18:19:00,
2013-02-25 10:24:00,36.9,35.6,28.91,WNW,292,3.6,3.6,95,0.09,,BKN028,0.58,VWS V14.01,2013-02-25 18:24:00,
2013-02-25 10:29:00,37.0,35.5,28.91,ENE,68,1.3,1.3,94,0.09,,BKN028,0.58,VWS V14.01,2013-02-25 18:29:00,
2013-02-25 10:30:00,40.6,37.9,28.94,WNW,292,4.0,4.0,90,0.08,,,0.66,VWS V14.01,2013-02-25 18:30:00,
2013-02-25 10:34:00,37.0,35.5,28.91,NNW,338,2.9,2.9,94,0.08,,BKN028,0.62,VWS V14.01,2013-02-25 18:34:00,
2013-02-25 10:39:00,36.9,35.3,28.91,NNE,22,2.0,2.0,94,0.08,,BKN028,0.62,VWS V14.01,2013-02-25 18:39:00,
2013-02-25 10:44:00,36.9,35.3,28.91,WSW,248,0.0,0.0,94,0.08,,BKN028,0.62,VWS V14.01,2013-02-25 18:44:00,
2013-02-25 10:49:00,36.9,35.3,28.91,SSE,158,0.0,0.0,94,0.12,,BKN028,0.66,VWS V14.01,2013-02-25 18:49:00,
2013-02-25 10:54:00,36.7,35.1,28.94,ESE,112,0.0,0.0,94,0.12,,BKN028,0.66,VWS V14.01,2013-02-25 18:54:00,
2013-02-25 10:59:00,36.9,35.6,28.94,SSE,158,1.1,1.1,95,0.12,,BKN028,0.66,VWS V14.01,2013-02-25 18:59:00,
2013-02-25 11:00:00,38.8,35.6,28.94,NNE,22,2.5,2.5,88,0.04,,,0.66,VWS V14.01,2013-02-25 19:00:00,
2013-02-25 11:04:00,37.4,36.1,28.94,NNW,338,3.6,3.6,95,0.08,,,0.66,VWS V14.01,2013-02-25 19:04:00,
2013-02-25 11:09:00,38.7,37.6,28.94,SSW,202,1.1,1.1,96,0.08,,,0.66,VWS V14.01,2013-02-25 19:09:00,
2013-02-25 11:14:00,39.7,38.7,28.94,SSW,202,2.9,2.9,96,0.08,,,0.66,VWS V14.01,2013-02-25 19:14:00,
2013-02-25 11:18:00,40.5,39.1,28.94,SSE,158,2.0,2.0,95,0.08,,,0.66,VWS V14.01,2013-02-25 19:18:00,
2013-02-25 11:23:00,40.5,38.3,28.94,North,0,3.4,3.4,92,0.08,,,0.66,VWS V14.01,2013-02-25 19:23:00,
2013-02-25 11:28:00,40.6,37.9,28.94,WSW,248,2.7,2.7,90,0.08,,,0.66,VWS V14.01,2013-02-25 19:28:00,
2013-02-25 11:30:00,39.6,36.3,28.94,WSW,248,4.9,4.9,88,0.04,,,0.70,VWS V14.01,2013-02-25 19:30:00,
2013-02-25 11:33:00,40.6,37.7,28.94,NNW,338,2.5,2.5,89,0.04,,,0.66,VWS V14.01,2013-02-25 19:33:00,
2013-02-25 11:38:00,40.5,37.2,28.94,NNE,22,1.3,1.3,88,0.04,,,0.66,VWS V14.01,2013-02-25 19:38:00,
2013-02-25 11:43:00,39.9,36.4,28.94,NNW,338,3.8,3.8,87,0.04,,,0.66,VWS V14.01,2013-02-25 19:43:00,
2013-02-25 11:48:00,39.9,36.4,28.94,NE,45,0.0,0.0,87,0.04,,,0.66,VWS V14.01,2013-02-25 19:48:00,
2013-02-25 11:53:00,39.4,35.8,28.94,West,270,2.9,2.9,87,0.04,,,0.66,VWS V14.01,2013-02-25 19:53:00,
2013-02-25 11:58:00,39.0,35.8,28.94,NNE,22,6.0,6.0,88,0.04,,,0.66,VWS V14.01,2013-02-25 19:58:00,
2013-02-25 12:00:00,38.5,35.5,28.94,NNW,338,2.0,2.0,89,0.08,,,0.74,VWS V14.01,2013-02-25 20:00:00,
2013-02-25 12:03:00,38.8,35.9,28.94,North,0,3.4,3.4,89,0.04,,BKN035,0.70,VWS V14.01,2013-02-25 20:03:00,
2013-02-25 12:08:00,38.7,36.0,28.94,SW,225,6.3,6.3,90,0.04,,BKN035,0.70,VWS V14.01,2013-02-25 20:08:00,
2013-02-25 12:13:00,38.7,36.0,28.94,SE,135,4.9,4.9,90,0.04,,BKN035,0.70,VWS V14.01,2013-02-25 20:13:00,
2013-02-25 12:18:00,39.2,36.8,28.94,South,180,6.3,6.3,91,0.04,,BKN035,0.70,VWS V14.01,2013-02-25 20:18:00,
2013-02-25 12:23:00,39.4,37.0,28.94,WSW,248,2.7,2.7,91,0.04,,BKN035,0.70,VWS V14.01,2013-02-25 20:23:00,
2013-02-25 12:28:00,39.6,36.9,28.94,WSW,248,3.4,3.4,90,0.04,,BKN035,0.70,VWS V14.01,2013-02-25 20:28:00,
2013-02-25 12:30:00,40.5,36.3,28.94,SSE,158,2.5,2.5,85,0.08,,,0.74,VWS V14.01,2013-02-25 20:30:00,
2013-02-25 12:33:00,39.7,36.8,28.94,NNW,338,2.0,2.0,89,0.04,,BKN035,0.70,VWS V14.01,2013-02-25 20:33:00,
2013-02-25 12:38:00,39.6,36.6,28.94,NNE,22,4.5,4.5,89,0.04,,BKN035,0.70,VWS V14.01,2013-02-25 20:38:00,
2013-02-25 12:43:00,39.4,36.4,28.94,SSW,202,3.6,3.6,89,0.04,,BKN035,0.70,VWS V14.01,2013-02-25 20:43:00,
2013-02-25 12:48:00,39.2,36.5,28.94,ESE,112,2.0,2.0,90,0.04,,BKN035,0.70,VWS V14.01,2013-02-25 20:48:00,
2013-02-25 12:53:00,38.8,36.2,28.94,WNW,292,3.8,3.8,90,0.04,,BKN035,0.70,VWS V14.01,2013-02-25 20:53:00,
2013-02-25 12:58:00,38.5,35.5,28.94,NNW,338,9.6,9.6,89,0.04,,BKN035,0.70,VWS V14.01,2013-02-25 20:58:00,
2013-02-25 13:00:00,39.2,35.7,28.94,SSW,202,4.0,4.0,87,0.08,,,0.78,VWS V14.01,2013-02-25 21:00:00,
2013-02-25 13:03:00,38.8,35.9,28.94,ESE,112,2.0,2.0,89,0.08,,BKN035,0.74,VWS V14.01,2013-02-25 21:03:00,
2013-02-25 13:08:00,41.0,38.6,28.94,SSW,202,0.9,0.9,91,0.08,,BKN035,0.74,VWS V14.01,2013-02-25 21:08:00,
2013-02-25 13:13:00,41.7,37.8,28.94,WSW,248,8.1,8.1,86,0.08,,BKN035,0.74,VWS V14.01,2013-02-25 21:13:00,
2013-02-25 13:18:00,41.5,36.2,28.94,SSE,158,3.4,3.4,81,0.08,,BKN035,0.74,VWS V14.01,2013-02-25 21:18:00,
2013-02-25 13:23:00,41.0,36.2,28.94,North,0,9.6,9.6,83,0.08,,BKN035,0.74,VWS V14.01,2013-02-25 21:23:00,
2013-02-25 13:28:00,40.6,36.5,28.94,WNW,292,6.0,6.0,85,0.08,,BKN035,0.74,VWS V14.01,2013-02-25 21:28:00,
2013-02-25 13:30:00,38.8,35.6,28.94,NW,315,2.7,2.7,88,0.04,,,0.78,VWS V14.01,2013-02-25 21:30:00,
2013-02-25 13:33:00,40.3,36.1,28.94,WNW,292,2.9,2.9,85,0.04,,BKN035,0.74,VWS V14.01,2013-02-25 21:33:00,
2013-02-25 13:38:00,39.4,35.0,28.94,SSE,158,2.0,2.0,84,0.04,,BKN035,0.74,VWS V14.01,2013-02-25 21:38:00,
2013-02-25 13:43:00,38.8,35.0,28.94,SSW,202,2.5,2.5,86,0.08,,BKN035,0.78,VWS V14.01,2013-02-25 21:43:00,
2013-02-25 13:48:00,38.8,34.4,28.94,SE,135,2.5,2.5,84,0.08,,BKN035,0.78,VWS V14.01,2013-02-25 21:48:00,
2013-02-25 13:53:00,38.8,35.0,28.94,SSW,202,1.3,1.3,86,0.08,,BKN035,0.78,VWS V14.01,2013-02-25 21:53:00,
2013-02-25 13:58:00,39.2,35.7,28.94,ENE,68,2.7,2.7,87,0.08,,BKN035,0.78,VWS V14.01,2013-02-25 21:58:00,
2013-02-25 14:00:00,38.1,35.2,28.97,WSW,248,2.9,2.9,89,0.04,,,0.78,VWS V14.01,2013-02-25 22:00:00,
2013-02-25 14:03:00,39.6,36.0,28.94,SSW,202,1.1,1.1,87,0.04,,,0.78,VWS V14.01,2013-02-25 22:03:00,
2013-02-25 14:08:00,39.7,36.2,28.94,WNW,292,3.8,3.8,87,0.04,,,0.78,VWS V14.01,2013-02-25 22:08:00,
2013-02-25 14:13:00,39.4,35.2,28.94,WSW,248,2.9,2.9,85,0.04,,,0.78,VWS V14.01,2013-02-25 22:13:00,
2013-02-25 14:18:00,39.2,35.4,28.94,South,180,2.5,2.5,86,0.04,,,0.78,VWS V14.01,2013-02-25 22:18:00,
2013-02-25 14:23:00,39.0,35.8,28.94,ESE,112,1.6,1.6,88,0.04,,,0.78,VWS V14.01,2013-02-25 22:23:00,
2013-02-25 14:28:00,38.8,35.6,28.94,SSW,202,5.6,5.6,88,0.04,,,0.78,VWS V14.01,2013-02-25 22:28:00,
2013-02-25 14:30:00,37.6,35.5,28.97,WNW,292,8.1,8.1,92,0.04,,,0.82,VWS V14.01,2013-02-25 22:30:00,
2013-02-25 14:33:00,38.8,35.6,28.94,SSE,158,2.7,2.7,88,0.04,,,0.78,VWS V14.01,2013-02-25 22:33:00,
2013-02-25 14:38:00,38.7,35.7,28.97,NNW,338,3.6,3.6,89,0.04,,,0.78,VWS V14.01,2013-02-25 22:38:00,
2013-02-25 14:43:00,38.5,35.2,28.97,SSW,202,4.3,4.3,88,0.04,,,0.78,VWS V14.01,2013-02-25 22:43:00,
2013-02-25 14:48:00,38.5,35.5,28.97,SE,135,3.1,3.1,89,0.04,,,0.78,VWS V14.01,2013-02-25 22:48:00,
2013-02-25 14:53:00,38.3,35.3,28.97,NNE,22,1.3,1.3,89,0.04,,,0.78,VWS V14.01,2013-02-25 22:53:00,
2013-02-25 14:58:00,38.1,35.2,28.97,WNW,292,4.3,4.3,89,0.04,,,0.78,VWS V14.01,2013-02-25 22:58:00,
2013-02-25 15:00:00,39.0,36.3,28.97,NNW,338,3.1,3.1,90,0.04,,,0.82,VWS V14.01,2013-02-25 23:00:00,
2013-02-25 15:03:00,37.9,35.0,28.97,East,90,1.3,1.3,89,0.00,,CLR,0.78,VWS V14.01,2013-02-25 23:03:00,
2013-02-25 15:08:00,37.6,34.6,28.97,SSE,158,3.1,3.1,89,0.04,,CLR,0.82,VWS V14.01,2013-02-25 23:08:00,
2013-02-25 15:13:00,37.4,34.5,28.97,West,270,3.1,3.1,89,0.04,,CLR,0.82,VWS V14.01,2013-02-25 23:13:00,
2013-02-25 15:18:00,37.2,34.6,28.97,SSW,202,1.1,1.1,90,0.04,,CLR,0.82,VWS V14.01,2013-02-25 23:18:00,
2013-02-25 15:23:00,37.2,35.1,28.97,NNW,338,2.0,2.0,92,0.04,,CLR,0.82,VWS V14.01,2013-02-25 23:23:00,
2013-02-25 15:28:00,37.4,35.3,28.97,SSE,158,2.0,2.0,92,0.04,,CLR,0.82,VWS V14.01,2013-02-25 23:28:00,
2013-02-25 15:30:00,37.8,35.1,28.97,West,270,2.0,2.0,90,0.09,,,0.87,VWS V14.01,2013-02-25 23:30:00,
2013-02-25 15:33:00,37.8,35.9,28.97,SSW,202,5.6,5.6,93,0.04,,CLR,0.82,VWS V14.01,2013-02-25 23:33:00,
2013-02-25 15:38:00,37.9,36.1,28.97,NNW,338,2.2,2.2,93,0.04,,CLR,0.82,VWS V14.01,2013-02-25 23:38:00,
2013-02-25 15:43:00,37.9,35.8,28.97,WSW,248,2.2,2.2,92,0.04,,CLR,0.82,VWS V14.01,2013-02-25 23:43:00,
2013-02-25 15:48:00,38.3,36.5,28.97,North,0,1.6,1.6,93,0.04,,CLR,0.82,VWS V14.01,2013-02-25 23:48:00,
2013-02-25 15:53:00,39.2,36.5,28.97,WSW,248,1.3,1.3,90,0.04,,CLR,0.82,VWS V14.01,2013-02-25 23:53:00,
2013-02-25 15:58:00,39.0,36.3,28.97,ESE,112,2.2,2.2,90,0.04,,CLR,0.82,VWS V14.01,2013-02-25 23:58:00,
2013-02-25 16:03:00,39.0,36.3,28.97,SSW,202,6.5,6.5,90,0.04,,,0.82,VWS V14.01,2013-02-26 00:03:00,
2013-02-25 16:08:00,38.7,36.0,28.97,SSW,202,2.5,2.5,90,0.04,,,0.82,VWS V14.01,2013-02-26 00:08:00,
2013-02-25 16:13:00,38.7,36.0,28.97,SSW,202,3.6,3.6,90,0.04,,,0.82,VWS V14.01,2013-02-26 00:13:00,
2013-02-25 16:18:00,38.3,35.3,28.97,ESE,112,0.0,0.0,89,0.04,,,0.82,VWS V14.01,2013-02-26 00:18:00,
2013-02-25 16:23:00,38.1,35.5,28.97,West,270,0.0,0.0,90,0.09,,,0.87,VWS V14.01,2013-02-26 00:23:00,
2013-02-25 16:28:00,37.9,35.3,28.97,WNW,292,3.8,3.8,90,0.09,,,0.87,VWS V14.01,2013-02-26 00:28:00,
2013-02-25 16:30:00,37.6,34.3,28.97,WSW,248,1.3,1.3,88,0.05,,,0.87,VWS V14.01,2013-02-26 00:30:00,
2013-02-25 16:33:00,37.9,35.3,28.97,NNE,22,2.9,2.9,90,0.05,,,0.87,VWS V14.01,2013-02-26 00:33:00,
2013-02-25 16:38:00,38.1,35.7,28.97,South,180,1.3,1.3,91,0.05,,,0.87,VWS V14.01,2013-02-26 00:38:00,
2013-02-25 16:43:00,38.1,35.7,28.97,NNW,338,4.0,4.0,91,0.05,,,0.87,VWS V14.01,2013-02-26 00:43:00,
2013-02-25 16:48:00,38.1,35.7,28.97,SSW,202,1.1,1.1,91,0.05,,,0.87,VWS V14.01,2013-02-26 00:48:00,
2013-02-25 16:53:00,38.1,36.0,28.97,NE,45,1.1,1.1,92,0.05,,,0.87,VWS V14.01,2013-02-26 00:53:00,
2013-02-25 16:58:00,38.3,36.2,28.97,NNE,22,1.3,1.3,92,0.05,,,0.87,VWS V14.01,2013-02-26 00:58:00,
2013-02-25 17:00:00,36.7,35.1,29.00,NNE,22,1.6,1.6,94,0.04,,,0.91,VWS V14.01,2013-02-26 01:00:00,
2013-02-25 17:03:00,38.3,36.2,28.97,WSW,248,3.4,3.4,92,0.05,,,0.87,VWS V14.01,2013-02-26 01:03:00,
2013-02-25 17:08:00,38.1,35.2,29.00,NNW,338,5.8,5.8,89,0.05,,,0.87,VWS V14.01,2013-02-26 01:08:00,
2013-02-25 17:13:00,38.1,34.3,29.00,SSE,158,3.6,3.6,86,0.05,,,0.87,VWS V14.01,2013-02-26 01:13:00,
2013-02-25 17:18:00,37.9,34.1,29.00,NW,315,1.6,1.6,86,0.05,,,0.87,VWS V14.01,2013-02-26 01:18:00,
2013-02-25 17:23:00,37.9,34.1,29.00,SW,225,2.5,2.5,86,0.05,,,0.87,VWS V14.01,2013-02-26 01:23:00,
2013-02-25 17:28:00,37.6,34.3,28.97,NNW,338,1.1,1.1,88,0.05,,,0.87,VWS V14.01,2013-02-26 01:28:00,
2013-02-25 17:30:00,36.0,34.7,29.00,SSW,202,2.9,2.9,95,0.04,,,0.91,VWS V14.01,2013-02-26 01:30:00,
2013-02-25 17:33:00,37.4,34.5,28.97,WNW,292,0.0,0.0,89,0.00,,,0.87,VWS V14.01,2013-02-26 01:33:00,
2013-02-25 17:38:00,37.2,34.8,29.00,NW,315,2.5,2.5,91,0.00,,,0.87,VWS V14.01,2013-02-26 01:38:00,
2013-02-25 17:43:00,37.2,35.1,29.00,NW,315,1.6,1.6,92,0.00,,,0.87,VWS V14.01,2013-02-26 01:43:00,
2013-02-25 17:48:00,37.0,35.2,29.00,NNW,338,2.2,2.2,93,0.00,,,0.87,VWS V14.01,2013-02-26 01:48:00,
2013-02-25 17:53:00,36.9,35.3,29.00,WNW,292,4.0,4.0,94,0.00,,,0.87,VWS V14.01,2013-02-26 01:53:00,
2013-02-25 17:58:00,36.9,35.3,29.00,WSW,248,2.2,2.2,94,0.04,,,0.91,VWS V14.01,2013-02-26 01:58:00,
2013-02-25 18:00:00,35.4,34.4,29.03,NNW,338,2.0,2.0,96,0.04,,,0.91,VWS V14.01,2013-02-26 02:00:00,
2013-02-25 18:03:00,36.5,34.7,29.00,WNW,292,1.6,1.6,93,0.04,,SCT055,0.91,VWS V14.01,2013-02-26 02:03:00,
2013-02-25 18:08:00,36.3,34.5,29.00,WSW,248,2.0,2.0,93,0.04,,SCT055,0.91,VWS V14.01,2013-02-26 02:08:00,
2013-02-25 18:13:00,36.3,34.5,29.00,ESE,112,0.0,0.0,93,0.04,,SCT055,0.91,VWS V14.01,2013-02-26 02:13:00,
2013-02-25 18:18:00,36.3,34.8,29.00,NNE,22,1.1,1.1,94,0.04,,SCT055,0.91,VWS V14.01,2013-02-26 02:18:00,
2013-02-25 18:23:00,36.1,34.8,29.00,ESE,112,1.1,1.1,95,0.04,,SCT055,0.91,VWS V14.01,2013-02-26 02:23:00,
2013-02-25 18:27:00,36.0,34.7,29.00,West,270,2.7,2.7,95,0.04,,SCT055,0.91,VWS V14.01,2013-02-26 02:27:00,
2013-02-25 18:30:00,35.6,34.6,29.03,SW,225,6.5,6.5,96,0.00,,,0.91,VWS V14.01,2013-02-26 02:30:00,
2013-02-25 18:32:00,35.8,34.5,29.00,NE,45,1.3,1.3,95,0.04,,SCT055,0.91,VWS V14.01,2013-02-26 02:32:00,
2013-02-25 18:37:00,35.8,34.5,29.00,SSW,202,2.2,2.2,95,0.04,,SCT055,0.91,VWS V14.01,2013-02-26 02:37:00,
2013-02-25 18:42:00,35.8,34.5,29.00,East,90,0.9,0.9,95,0.04,,SCT055,0.91,VWS V14.01,2013-02-26 02:42:00,
2013-02-25 18:47:00,35.6,34.3,29.00,NNW,338,2.0,2.0,95,0.04,,SCT055,0.91,VWS V14.01,2013-02-26 02:47:00,
2013-02-25 18:52:00,35.4,34.4,29.03,West,270,1.1,1.1,96,0.04,,SCT055,0.91,VWS V14.01,2013-02-26 02:52:00,
2013-02-25 18:57:00,35.4,34.4,29.03,West,270,5.8,5.8,96,0.04,,SCT055,0.91,VWS V14.01,2013-02-26 02:57:00,
2013-02-25 19:00:00,35.8,34.5,29.03,ESE,112,1.1,1.1,95,0.00,,,0.91,VWS V14.01,2013-02-26 03:00:00,
2013-02-25 19:02:00,35.4,34.7,29.03,North,0,1.6,1.6,97,0.00,,BKN028,0.91,VWS V14.01,2013-02-26 03:02:00,
2013-02-25 19:07:00,35.6,34.8,29.03,SSW,202,1.3,1.3,97,0.00,,BKN028,0.91,VWS V14.01,2013-02-26 03:07:00,
2013-02-25 19:12:00,35.6,34.8,29.03,West,270,2.0,2.0,97,0.00,,BKN028,0.91,VWS V14.01,2013-02-26 03:12:00,
2013-02-25 19:17:00,35.6,34.8,29.03,SSE,158,2.5,2.5,97,0.00,,BKN028,0.91,VWS V14.01,2013-02-26 03:17:00,
2013-02-25 19:22:00,35.8,34.8,29.03,ENE,68,3.6,3.6,96,0.00,,BKN028,0.91,VWS V14.01,2013-02-26 03:22:00,
2013-02-25 19:27:00,35.6,34.6,29.03,SSW,202,4.3,4.3,96,0.00,,BKN028,0.91,VWS V14.01,2013-02-26 03:27:00,
2013-02-25 19:30:00,35.4,34.1,29.03,WSW,248,3.4,3.4,95,0.00,,,0.91,VWS V14.01,2013-02-26 03:30:00,
2013-02-25 19:32:00,35.6,34.6,29.03,WSW,248,0.0,0.0,96,0.00,,BKN028,0.91,VWS V14.01,2013-02-26 03:32:00,
2013-02-25 19:37:00,35.6,34.3,29.03,SSW,202,2.0,2.0,95,0.00,,BKN028,0.91,VWS V14.01,2013-02-26 03:37:00,
2013-02-25 19:42:00,35.6,34.3,29.03,SSW,202,2.9,2.9,95,0.00,,BKN028,0.91,VWS V14.01,2013-02-26 03:42:00,
2013-02-25 19:47:00,35.8,34.5,29.03,SW,225,1.3,1.3,95,0.00,,BKN028,0.91,VWS V14.01,2013-02-26 03:47:00,
2013-02-25 19:52:00,35.8,34.5,29.03,West,270,4.0,4.0,95,0.00,,BKN028,0.91,VWS V14.01,2013-02-26 03:52:00,
2013-02-25 19:57:00,36.0,34.7,29.03,SSW,202,2.7,2.7,95,0.00,,BKN028,0.91,VWS V14.01,2013-02-26 03:57:00,
2013-02-25 20:00:00,35.1,34.3,29.06,SSW,202,4.9,4.9,97,0.00,,,0.91,VWS V14.01,2013-02-26 04:00:00,
2013-02-25 20:02:00,35.8,34.5,29.03,NNE,22,2.2,2.2,95,0.00,,SCT043,0.91,VWS V14.01,2013-02-26 04:02:00,
2013-02-25 20:07:00,35.8,34.5,29.03,SSW,202,3.1,3.1,95,0.00,,SCT043,0.91,VWS V14.01,2013-02-26 04:07:00,
2013-02-25 20:12:00,35.8,34.5,29.03,WSW,248,1.1,1.1,95,0.00,,SCT043,0.91,VWS V14.01,2013-02-26 04:12:00,
2013-02-25 20:17:00,35.8,34.5,29.03,SW,225,4.0,4.0,95,0.00,,SCT043,0.91,VWS V14.01,2013-02-26 04:17:00,
2013-02-25 20:22:00,35.8,34.5,29.03,SSW,202,3.8,3.8,95,0.00,,SCT043,0.91,VWS V14.01,2013-02-26 04:22:00,
2013-02-25 20:27:00,35.6,34.0,29.03,SSW,202,2.2,2.2,94,0.00,,SCT043,0.91,VWS V14.01,2013-02-26 04:27:00,
2013-02-25 20:30:00,34.9,34.1,29.06,NNW,338,1.3,1.3,97,0.04,,,0.95,VWS V14.01,2013-02-26 04:30:00,
2013-02-25 20:32:00,35.4,34.1,29.03,SSE,158,2.5,2.5,95,0.00,,SCT043,0.91,VWS V14.01,2013-02-26 04:32:00,
2013-02-25 20:37:00,35.1,33.8,29.03,NNW,338,2.5,2.5,95,0.00,,SCT043,0.91,VWS V14.01,2013-02-26 04:37:00,
2013-02-25 20:42:00,35.1,34.0,29.06,SW,225,4.0,4.0,96,0.00,,SCT043,0.91,VWS V14.01,2013-02-26 04:42:00,
2013-02-25 20:47:00,35.1,34.3,29.06,West,270,1.1,1.1,97,0.00,,SCT043,0.91,VWS V14.01,2013-02-26 04:47:00,
2013-02-25 20:52:00,35.1,34.3,29.06,SSW,202,2.9,2.9,97,0.00,,SCT043,0.91,VWS V14.01,2013-02-26 04:52:00,
2013-02-25 20:57:00,35.1,34.3,29.06,NE,45,2.0,2.0,97,0.00,,SCT043,0.91,VWS V14.01,2013-02-26 04:57:00,
2013-02-25 21:00:00,35.1,34.3,29.06,SSW,202,5.8,5.8,97,0.00,,SCT043,0.91,VWS V14.01,2013-02-26 05:00:00,
2013-02-25 21:05:00,34.9,34.1,29.06,WNW,292,4.7,4.7,97,0.00,,OVC041,0.91,VWS V14.01,2013-02-26 05:05:00,
2013-02-25 21:10:00,34.9,34.4,29.06,NNW,338,0.9,0.9,98,0.00,,OVC041,0.91,VWS V14.01,2013-02-26 05:10:00,
2013-02-25 21:15:00,34.9,34.1,29.06,SSW,202,2.5,2.5,97,0.00,,OVC041,0.91,VWS V14.01,2013-02-26 05:15:00,
2013-02-25 21:20:00,34.9,34.4,29.06,NNE,22,3.6,3.6,98,0.00,,OVC041,0.91,VWS V14.01,2013-02-26 05:20:00,
2013-02-25 21:25:00,34.9,34.1,29.06,West,270,2.2,2.2,97,0.00,,OVC041,0.91,VWS V14.01,2013-02-26 05:25:00,
2013-02-25 21:30:00,34.9,34.1,29.06,NNW,338,1.3,1.3,97,0.04,,OVC041,0.95,VWS V14.01,2013-02-26 05:30:00,
2013-02-25 21:35:00,34.9,34.4,29.06,South,180,2.2,2.2,98,0.04,,OVC041,0.95,VWS V14.01,2013-02-26 05:35:00,
2013-02-25 21:40:00,34.9,34.1,29.06,West,270,1.6,1.6,97,0.04,,OVC041,0.95,VWS V14.01,2013-02-26 05:40:00,
2013-02-25 21:45:00,34.9,34.1,29.06,SE,135,0.0,0.0,97,0.04,,OVC041,0.95,VWS V14.01,2013-02-26 05:45:00,
2013-02-25 21:50:00,34.7,33.9,29.06,SE,135,2.5,2.5,97,0.04,,OVC041,0.95,VWS V14.01,2013-02-26 05:50:00,
2013-02-25 21:55:00,34.7,33.9,29.06,East,90,0.0,0.0,97,0.04,,OVC041,0.95,VWS V14.01,2013-02-26 05:55:00,
2013-02-25 22:00:00,34.5,33.8,29.06,ESE,112,0.0,0.0,97,0.04,,OVC041,0.95,VWS V14.01,2013-02-26 06:00:00,
2013-02-25 22:05:00,34.3,33.6,29.06,East,90,2.2,2.2,97,0.04,,BKN044,0.95,VWS V14.01,2013-02-26 06:05:00,
2013-02-25 22:10:00,34.3,33.6,29.09,SE,135,0.0,0.0,97,0.04,,BKN044,0.95,VWS V14.01,2013-02-26 06:10:00,
2013-02-25 22:15:00,34.3,33.6,29.09,East,90,1.3,1.3,97,0.04,,BKN044,0.95,VWS V14.01,2013-02-26 06:15:00,
2013-02-25 22:20:00,34.2,33.4,29.09,SSE,158,0.0,0.0,97,0.04,,BKN044,0.95,VWS V14.01,2013-02-26 06:20:00,
2013-02-25 22:25:00,34.2,33.7,29.09,SE,135,0.0,0.0,98,0.04,,BKN044,0.95,VWS V14.01,2013-02-26 06:25:00,
2013-02-25 22:30:00,34.2,33.7,29.09,SE,135,0.0,0.0,98,0.04,,BKN044,0.95,VWS V14.01,2013-02-26 06:30:00,
2013-02-25 22:34:00,34.0,33.5,29.09,SE,135,0.0,0.0,98,0.00,,BKN044,0.95,VWS V14.01,2013-02-26 06:34:00,
2013-02-25 22:39:00,34.0,33.5,29.09,SSE,158,0.9,0.9,98,0.00,,BKN044,0.95,VWS V14.01,2013-02-26 06:39:00,
2013-02-25 22:44:00,34.0,33.5,29.09,SSE,158,0.0,0.0,98,0.00,,BKN044,0.95,VWS V14.01,2013-02-26 06:44:00,
2013-02-25 22:49:00,34.0,33.5,29.09,SE,135,0.0,0.0,98,0.00,,BKN044,0.95,VWS V14.01,2013-02-26 06:49:00,
2013-02-25 22:54:00,34.0,33.5,29.09,NNE,22,0.0,0.0,98,0.00,,BKN044,0.95,VWS V14.01,2013-02-26 06:54:00,
2013-02-25 22:59:00,33.8,33.3,29.09,NNE,22,1.3,1.3,98,0.00,,BKN044,0.95,VWS V14.01,2013-02-26 06:59:00,
2013-02-25 23:00:00,33.8,33.3,29.09,East,90,0.0,0.0,98,0.00,,,0.00,VWS V14.01,2013-02-26 07:00:00,
2013-02-25 23:04:00,34.0,33.5,29.09,SSW,202,1.1,1.1,98,0.00,,BKN032,0.95,VWS V14.01,2013-02-26 07:04:00,
2013-02-25 23:09:00,34.0,33.5,29.09,SSE,158,0.0,0.0,98,0.00,,BKN032,0.95,VWS V14.01,2013-02-26 07:09:00,
2013-02-25 23:14:00,34.0,33.5,29.09,WNW,292,2.2,2.2,98,0.00,,BKN032,0.95,VWS V14.01,2013-02-26 07:14:00,
2013-02-25 23:19:00,34.0,33.5,29.09,West,270,1.1,1.1,98,0.00,,BKN032,0.95,VWS V14.01,2013-02-26 07:19:00,
2013-02-25 23:24:00,34.0,33.5,29.09,ESE,112,0.0,0.0,98,0.00,,BKN032,0.95,VWS V14.01,2013-02-26 07:24:00,
2013-02-25 23:29:00,34.0,33.5,29.09,SSE,158,0.0,0.0,98,0.00,,BKN032,0.95,VWS V14.01,2013-02-26 07:29:00,
2013-02-25 23:30:00,33.8,33.3,29.09,SE,135,0.0,0.0,98,0.04,,,0.04,VWS V14.01,2013-02-26 07:30:00,
2013-02-25 23:34:00,34.0,33.5,29.09,West,270,0.0,0.0,98,0.00,,BKN032,0.95,VWS V14.01,2013-02-26 07:34:00,
2013-02-25 23:39:00,34.0,33.5,29.09,SSW,202,0.0,0.0,98,0.00,,BKN032,0.95,VWS V14.01,2013-02-26 07:39:00,
2013-02-25 23:44:00,33.8,33.3,29.09,East,90,1.6,1.6,98,0.00,,BKN032,0.95,VWS V14.01,2013-02-26 07:44:00,
2013-02-25 23:49:00,33.8,33.3,29.09,East,90,0.0,0.0,98,0.00,,BKN032,0.95,VWS V14.01,2013-02-26 07:49:00,
2013-02-25 23:54:00,33.8,33.3,29.09,East,90,0.0,0.0,98,0.00,,BKN032,0.95,VWS V14.01,2013-02-26 07:54:00,
2013-02-25 23:59:00,33.8,33.3,29.09,East,90,0.0,0.0,98,0.00,,BKN032,0.95,VWS V14.01,2013-02-26 07:59:00,